sensor_id;sensor_type;location;lat;lon;timestamp;P1;durP1;ratioP1;P2;durP2;ratioP2
68792;SDS011;55778;54.346;10.210;2023-02-15T00:01:50;72.03;;;21.33;;
68792;SDS011;55778;54.346;10.210;2023-02-15T00:04:18;75.13;;;20.83;;
68792;SDS011;55778;54.346;10.210;2023-02-15T00:06:44;74.45;;;21.58;;
68792;SDS011;55778;54.346;10.210;2023-02-15T00:09:10;71.22;;;19.83;;
68792;SDS011;55778;54.346;10.210;2023-02-15T00:11:36;78.18;;;21.38;;
68792;SDS011;55778;54.346;10.210;2023-02-15T00:14:17;77.85;;;22.17;;
68792;SDS011;55778;54.346;10.210;2023-02-15T00:16:47;72.63;;;21.23;;
68792;SDS011;55778;54.346;10.210;2023-02-15T00:19:14;72.88;;;21.55;;
68792;SDS011;55778;54.346;10.210;2023-02-15T00:21:41;65.47;;;19.45;;
68792;SDS011;55778;54.346;10.210;2023-02-15T00:24:08;70.13;;;20.77;;
68792;SDS011;55778;54.346;10.210;2023-02-15T00:26:35;66.93;;;20.15;;
68792;SDS011;55778;54.346;10.210;2023-02-15T00:29:03;70.22;;;20.50;;
68792;SDS011;55778;54.346;10.210;2023-02-15T00:31:28;66.40;;;20.90;;
68792;SDS011;55778;54.346;10.210;2023-02-15T00:33:55;78.65;;;21.83;;
68792;SDS011;55778;54.346;10.210;2023-02-15T00:38:50;70.80;;;20.33;;
68792;SDS011;55778;54.346;10.210;2023-02-15T00:41:16;69.70;;;20.38;;
68792;SDS011;55778;54.346;10.210;2023-02-15T00:43:41;66.80;;;21.52;;
68792;SDS011;55778;54.346;10.210;2023-02-15T00:46:07;72.82;;;20.60;;
68792;SDS011;55778;54.346;10.210;2023-02-15T00:48:32;65.03;;;20.27;;
68792;SDS011;55778;54.346;10.210;2023-02-15T00:50:58;75.95;;;21.95;;
68792;SDS011;55778;54.346;10.210;2023-02-15T00:53:25;73.32;;;22.17;;
68792;SDS011;55778;54.346;10.210;2023-02-15T00:55:52;70.75;;;21.10;;
68792;SDS011;55778;54.346;10.210;2023-02-15T00:58:17;80.03;;;21.23;;
68792;SDS011;55778;54.346;10.210;2023-02-15T01:00:44;72.60;;;21.23;;
68792;SDS011;55778;54.346;10.210;2023-02-15T01:03:11;78.65;;;20.65;;
68792;SDS011;55778;54.346;10.210;2023-02-15T01:05:37;121.00;;;22.90;;
68792;SDS011;55778;54.346;10.210;2023-02-15T01:08:03;77.60;;;21.63;;
68792;SDS011;55778;54.346;10.210;2023-02-15T01:10:28;112.80;;;23.50;;
68792;SDS011;55778;54.346;10.210;2023-02-15T01:12:54;138.15;;;24.70;;
68792;SDS011;55778;54.346;10.210;2023-02-15T01:15:20;102.93;;;23.73;;
68792;SDS011;55778;54.346;10.210;2023-02-15T01:17:46;148.27;;;23.63;;
68792;SDS011;55778;54.346;10.210;2023-02-15T01:20:18;115.47;;;21.40;;
68792;SDS011;55778;54.346;10.210;2023-02-15T01:22:53;99.07;;;19.83;;
68792;SDS011;55778;54.346;10.210;2023-02-15T01:25:20;133.02;;;24.15;;
68792;SDS011;55778;54.346;10.210;2023-02-15T01:27:47;123.10;;;23.60;;
68792;SDS011;55778;54.346;10.210;2023-02-15T01:30:13;284.63;;;29.65;;
68792;SDS011;55778;54.346;10.210;2023-02-15T01:32:39;207.07;;;26.67;;
68792;SDS011;55778;54.346;10.210;2023-02-15T01:35:05;229.18;;;24.60;;
68792;SDS011;55778;54.346;10.210;2023-02-15T01:37:31;157.18;;;22.63;;
68792;SDS011;55778;54.346;10.210;2023-02-15T01:39:58;135.73;;;20.80;;
68792;SDS011;55778;54.346;10.210;2023-02-15T01:42:25;118.57;;;21.10;;
68792;SDS011;55778;54.346;10.210;2023-02-15T01:45:02;345.55;;;30.17;;
68792;SDS011;55778;54.346;10.210;2023-02-15T01:47:40;128.80;;;18.15;;
68792;SDS011;55778;54.346;10.210;2023-02-15T01:50:14;124.63;;;19.83;;
68792;SDS011;55778;54.346;10.210;2023-02-15T01:52:49;164.18;;;22.48;;
68792;SDS011;55778;54.346;10.210;2023-02-15T01:55:16;262.73;;;25.05;;
68792;SDS011;55778;54.346;10.210;2023-02-15T01:57:42;388.00;;;30.58;;
68792;SDS011;55778;54.346;10.210;2023-02-15T02:00:10;366.38;;;30.17;;
68792;SDS011;55778;54.346;10.210;2023-02-15T02:02:37;194.60;;;23.52;;
68792;SDS011;55778;54.346;10.210;2023-02-15T02:05:04;276.25;;;26.63;;
68792;SDS011;55778;54.346;10.210;2023-02-15T02:07:36;159.23;;;21.63;;
68792;SDS011;55778;54.346;10.210;2023-02-15T02:10:05;264.83;;;26.48;;
68792;SDS011;55778;54.346;10.210;2023-02-15T02:12:32;62.38;;;17.38;;
68792;SDS011;55778;54.346;10.210;2023-02-15T02:14:59;348.23;;;30.40;;
68792;SDS011;55778;54.346;10.210;2023-02-15T02:17:35;89.38;;;18.48;;
68792;SDS011;55778;54.346;10.210;2023-02-15T02:34:00;99.60;;;16.80;;
68792;SDS011;55778;54.346;10.210;2023-02-15T02:44:41;65.38;;;15.20;;
68792;SDS011;55778;54.346;10.210;2023-02-15T02:47:25;132.90;;;19.15;;
68792;SDS011;55778;54.346;10.210;2023-02-15T02:50:02;63.60;;;15.82;;
68792;SDS011;55778;54.346;10.210;2023-02-15T02:52:43;119.50;;;17.75;;
68792;SDS011;55778;54.346;10.210;2023-02-15T02:55:16;77.93;;;16.25;;
68792;SDS011;55778;54.346;10.210;2023-02-15T03:00:46;137.48;;;19.10;;
68792;SDS011;55778;54.346;10.210;2023-02-15T03:05:56;81.82;;;15.30;;
68792;SDS011;55778;54.346;10.210;2023-02-15T03:08:25;64.30;;;12.57;;
68792;SDS011;55778;54.346;10.210;2023-02-15T03:10:55;63.35;;;15.05;;
68792;SDS011;55778;54.346;10.210;2023-02-15T03:13:23;99.57;;;15.93;;
68792;SDS011;55778;54.346;10.210;2023-02-15T03:15:49;147.15;;;19.23;;
68792;SDS011;55778;54.346;10.210;2023-02-15T03:18:41;62.90;;;14.05;;
68792;SDS011;55778;54.346;10.210;2023-02-15T03:21:17;76.32;;;16.65;;
68792;SDS011;55778;54.346;10.210;2023-02-15T03:23:50;85.03;;;16.40;;
68792;SDS011;55778;54.346;10.210;2023-02-15T03:26:18;102.60;;;16.70;;
68792;SDS011;55778;54.346;10.210;2023-02-15T03:28:47;80.32;;;14.27;;
68792;SDS011;55778;54.346;10.210;2023-02-15T03:31:16;82.78;;;16.48;;
68792;SDS011;55778;54.346;10.210;2023-02-15T03:34:04;50.08;;;11.77;;
68792;SDS011;55778;54.346;10.210;2023-02-15T03:42:01;139.65;;;18.95;;
68792;SDS011;55778;54.346;10.210;2023-02-15T03:47:30;73.10;;;16.40;;
68792;SDS011;55778;54.346;10.210;2023-02-15T03:52:56;53.88;;;16.48;;
68792;SDS011;55778;54.346;10.210;2023-02-15T03:55:24;99.22;;;17.38;;
68792;SDS011;55778;54.346;10.210;2023-02-15T03:57:50;50.30;;;13.70;;
68792;SDS011;55778;54.346;10.210;2023-02-15T04:00:35;55.40;;;15.45;;
68792;SDS011;55778;54.346;10.210;2023-02-15T04:03:33;122.13;;;20.55;;
68792;SDS011;55778;54.346;10.210;2023-02-15T04:06:05;69.60;;;16.63;;
68792;SDS011;55778;54.346;10.210;2023-02-15T04:08:31;78.25;;;16.95;;
68792;SDS011;55778;54.346;10.210;2023-02-15T04:11:15;79.82;;;15.40;;
68792;SDS011;55778;54.346;10.210;2023-02-15T04:13:41;146.30;;;17.25;;
68792;SDS011;55778;54.346;10.210;2023-02-15T04:16:06;67.30;;;13.77;;
68792;SDS011;55778;54.346;10.210;2023-02-15T04:18:35;160.18;;;21.45;;
68792;SDS011;55778;54.346;10.210;2023-02-15T04:21:20;146.57;;;19.65;;
68792;SDS011;55778;54.346;10.210;2023-02-15T04:24:06;174.60;;;20.42;;
68792;SDS011;55778;54.346;10.210;2023-02-15T04:26:50;162.98;;;20.02;;
68792;SDS011;55778;54.346;10.210;2023-02-15T04:29:19;61.85;;;14.98;;
68792;SDS011;55778;54.346;10.210;2023-02-15T04:31:46;122.13;;;16.05;;
68792;SDS011;55778;54.346;10.210;2023-02-15T04:34:12;128.95;;;19.75;;
68792;SDS011;55778;54.346;10.210;2023-02-15T04:36:38;233.75;;;23.60;;
68792;SDS011;55778;54.346;10.210;2023-02-15T04:39:04;61.78;;;16.55;;
68792;SDS011;55778;54.346;10.210;2023-02-15T04:41:30;140.77;;;18.65;;
68792;SDS011;55778;54.346;10.210;2023-02-15T04:43:55;47.67;;;10.43;;
68792;SDS011;55778;54.346;10.210;2023-02-15T04:46:22;99.22;;;15.85;;
68792;SDS011;55778;54.346;10.210;2023-02-15T04:48:48;129.95;;;17.27;;
68792;SDS011;55778;54.346;10.210;2023-02-15T04:51:13;115.65;;;15.02;;
68792;SDS011;55778;54.346;10.210;2023-02-15T04:53:38;110.47;;;15.45;;
68792;SDS011;55778;54.346;10.210;2023-02-15T04:56:04;120.30;;;17.40;;
68792;SDS011;55778;54.346;10.210;2023-02-15T04:58:29;114.75;;;16.65;;
68792;SDS011;55778;54.346;10.210;2023-02-15T05:00:55;88.03;;;14.25;;
68792;SDS011;55778;54.346;10.210;2023-02-15T05:03:22;77.93;;;14.75;;
68792;SDS011;55778;54.346;10.210;2023-02-15T05:05:47;125.00;;;16.95;;
68792;SDS011;55778;54.346;10.210;2023-02-15T05:08:13;188.88;;;19.95;;
68792;SDS011;55778;54.346;10.210;2023-02-15T05:10:38;93.78;;;16.35;;
68792;SDS011;55778;54.346;10.210;2023-02-15T05:13:04;99.32;;;16.80;;
68792;SDS011;55778;54.346;10.210;2023-02-15T05:15:29;137.63;;;19.67;;
68792;SDS011;55778;54.346;10.210;2023-02-15T05:17:55;81.15;;;14.80;;
68792;SDS011;55778;54.346;10.210;2023-02-15T05:20:20;130.30;;;19.55;;
68792;SDS011;55778;54.346;10.210;2023-02-15T05:22:45;79.43;;;13.18;;
68792;SDS011;55778;54.346;10.210;2023-02-15T05:25:11;78.65;;;15.43;;
68792;SDS011;55778;54.346;10.210;2023-02-15T05:27:54;101.25;;;16.42;;
68792;SDS011;55778;54.346;10.210;2023-02-15T05:30:43;73.20;;;13.50;;
68792;SDS011;55778;54.346;10.210;2023-02-15T05:33:08;61.80;;;13.23;;
68792;SDS011;55778;54.346;10.210;2023-02-15T05:35:34;40.67;;;13.88;;
68792;SDS011;55778;54.346;10.210;2023-02-15T05:37:59;179.73;;;21.95;;
68792;SDS011;55778;54.346;10.210;2023-02-15T05:40:25;145.23;;;19.98;;
68792;SDS011;55778;54.346;10.210;2023-02-15T05:42:51;88.18;;;16.70;;
68792;SDS011;55778;54.346;10.210;2023-02-15T05:45:16;38.08;;;14.02;;
68792;SDS011;55778;54.346;10.210;2023-02-15T05:47:42;69.47;;;14.90;;
68792;SDS011;55778;54.346;10.210;2023-02-15T05:50:07;112.95;;;16.00;;
68792;SDS011;55778;54.346;10.210;2023-02-15T05:52:33;139.77;;;19.15;;
68792;SDS011;55778;54.346;10.210;2023-02-15T05:54:59;103.57;;;17.40;;
68792;SDS011;55778;54.346;10.210;2023-02-15T05:57:25;119.55;;;18.90;;
68792;SDS011;55778;54.346;10.210;2023-02-15T05:59:51;115.40;;;16.70;;
68792;SDS011;55778;54.346;10.210;2023-02-15T06:02:17;120.97;;;16.88;;
68792;SDS011;55778;54.346;10.210;2023-02-15T06:04:42;82.15;;;15.18;;
68792;SDS011;55778;54.346;10.210;2023-02-15T06:07:08;70.25;;;14.65;;
68792;SDS011;55778;54.346;10.210;2023-02-15T06:09:33;157.13;;;20.33;;
68792;SDS011;55778;54.346;10.210;2023-02-15T06:11:58;274.30;;;26.00;;
68792;SDS011;55778;54.346;10.210;2023-02-15T06:14:24;122.88;;;16.77;;
68792;SDS011;55778;54.346;10.210;2023-02-15T06:16:50;127.18;;;16.60;;
68792;SDS011;55778;54.346;10.210;2023-02-15T06:19:16;69.03;;;13.32;;
68792;SDS011;55778;54.346;10.210;2023-02-15T06:21:41;47.97;;;13.73;;
68792;SDS011;55778;54.346;10.210;2023-02-15T06:24:08;299.30;;;26.48;;
68792;SDS011;55778;54.346;10.210;2023-02-15T06:26:33;144.57;;;19.15;;
68792;SDS011;55778;54.346;10.210;2023-02-15T06:28:59;112.45;;;18.33;;
68792;SDS011;55778;54.346;10.210;2023-02-15T06:31:24;184.13;;;19.30;;
68792;SDS011;55778;54.346;10.210;2023-02-15T06:33:50;109.35;;;15.18;;
68792;SDS011;55778;54.346;10.210;2023-02-15T06:36:15;163.45;;;18.42;;
68792;SDS011;55778;54.346;10.210;2023-02-15T06:38:41;138.88;;;18.17;;
68792;SDS011;55778;54.346;10.210;2023-02-15T06:41:06;61.47;;;16.10;;
68792;SDS011;55778;54.346;10.210;2023-02-15T06:43:31;72.22;;;15.05;;
68792;SDS011;55778;54.346;10.210;2023-02-15T06:45:57;131.25;;;17.48;;
68792;SDS011;55778;54.346;10.210;2023-02-15T06:48:23;60.63;;;13.80;;
68792;SDS011;55778;54.346;10.210;2023-02-15T06:50:48;53.05;;;11.00;;
68792;SDS011;55778;54.346;10.210;2023-02-15T06:53:14;64.07;;;12.68;;
68792;SDS011;55778;54.346;10.210;2023-02-15T06:55:39;69.03;;;13.02;;
68792;SDS011;55778;54.346;10.210;2023-02-15T06:58:05;77.50;;;12.88;;
68792;SDS011;55778;54.346;10.210;2023-02-15T07:00:30;62.47;;;13.00;;
68792;SDS011;55778;54.346;10.210;2023-02-15T07:02:56;70.82;;;13.23;;
68792;SDS011;55778;54.346;10.210;2023-02-15T07:05:23;94.35;;;15.48;;
68792;SDS011;55778;54.346;10.210;2023-02-15T07:07:49;64.45;;;13.93;;
68792;SDS011;55778;54.346;10.210;2023-02-15T07:10:15;122.70;;;17.80;;
68792;SDS011;55778;54.346;10.210;2023-02-15T07:12:40;169.15;;;19.05;;
68792;SDS011;55778;54.346;10.210;2023-02-15T07:15:06;82.43;;;14.25;;
68792;SDS011;55778;54.346;10.210;2023-02-15T07:17:34;59.05;;;13.27;;
68792;SDS011;55778;54.346;10.210;2023-02-15T07:20:00;27.92;;;7.72;;
68792;SDS011;55778;54.346;10.210;2023-02-15T07:22:26;108.40;;;15.05;;
68792;SDS011;55778;54.346;10.210;2023-02-15T07:24:52;98.72;;;14.05;;
68792;SDS011;55778;54.346;10.210;2023-02-15T07:27:22;110.93;;;12.45;;
68792;SDS011;55778;54.346;10.210;2023-02-15T07:29:48;132.20;;;17.17;;
68792;SDS011;55778;54.346;10.210;2023-02-15T07:32:13;84.82;;;13.43;;
68792;SDS011;55778;54.346;10.210;2023-02-15T07:34:39;69.65;;;12.40;;
68792;SDS011;55778;54.346;10.210;2023-02-15T07:37:05;115.78;;;15.15;;
68792;SDS011;55778;54.346;10.210;2023-02-15T07:39:30;57.35;;;13.43;;
68792;SDS011;55778;54.346;10.210;2023-02-15T07:41:56;43.83;;;10.55;;
68792;SDS011;55778;54.346;10.210;2023-02-15T07:44:21;89.63;;;14.88;;
68792;SDS011;55778;54.346;10.210;2023-02-15T07:46:47;97.53;;;16.13;;
68792;SDS011;55778;54.346;10.210;2023-02-15T07:49:12;78.22;;;15.02;;
68792;SDS011;55778;54.346;10.210;2023-02-15T07:51:37;83.30;;;15.35;;
68792;SDS011;55778;54.346;10.210;2023-02-15T07:54:03;48.90;;;11.85;;
68792;SDS011;55778;54.346;10.210;2023-02-15T07:56:28;54.67;;;13.80;;
68792;SDS011;55778;54.346;10.210;2023-02-15T07:58:54;65.65;;;14.75;;
68792;SDS011;55778;54.346;10.210;2023-02-15T08:01:26;72.63;;;14.02;;
68792;SDS011;55778;54.346;10.210;2023-02-15T08:03:56;138.07;;;18.05;;
68792;SDS011;55778;54.346;10.210;2023-02-15T08:06:23;71.07;;;15.25;;
68792;SDS011;55778;54.346;10.210;2023-02-15T08:08:51;75.50;;;14.93;;
68792;SDS011;55778;54.346;10.210;2023-02-15T08:11:18;123.88;;;17.90;;
68792;SDS011;55778;54.346;10.210;2023-02-15T08:13:55;107.95;;;15.75;;
68792;SDS011;55778;54.346;10.210;2023-02-15T08:16:45;66.68;;;13.18;;
68792;SDS011;55778;54.346;10.210;2023-02-15T08:19:14;71.97;;;14.93;;
68792;SDS011;55778;54.346;10.210;2023-02-15T08:21:43;75.97;;;14.65;;
68792;SDS011;55778;54.346;10.210;2023-02-15T08:24:11;73.22;;;15.23;;
68792;SDS011;55778;54.346;10.210;2023-02-15T08:26:38;83.07;;;15.27;;
68792;SDS011;55778;54.346;10.210;2023-02-15T08:29:05;54.33;;;13.32;;
68792;SDS011;55778;54.346;10.210;2023-02-15T08:31:32;104.57;;;15.10;;
68792;SDS011;55778;54.346;10.210;2023-02-15T08:33:58;88.82;;;13.45;;
68792;SDS011;55778;54.346;10.210;2023-02-15T08:36:26;87.82;;;14.10;;
68792;SDS011;55778;54.346;10.210;2023-02-15T08:38:53;73.65;;;12.18;;
68792;SDS011;55778;54.346;10.210;2023-02-15T08:41:20;62.17;;;13.32;;
68792;SDS011;55778;54.346;10.210;2023-02-15T08:43:54;73.47;;;14.07;;
68792;SDS011;55778;54.346;10.210;2023-02-15T08:46:21;117.10;;;16.23;;
68792;SDS011;55778;54.346;10.210;2023-02-15T08:48:48;45.38;;;13.43;;
68792;SDS011;55778;54.346;10.210;2023-02-15T08:51:15;188.48;;;20.70;;
68792;SDS011;55778;54.346;10.210;2023-02-15T08:53:43;149.05;;;18.10;;
68792;SDS011;55778;54.346;10.210;2023-02-15T08:56:14;91.45;;;14.98;;
68792;SDS011;55778;54.346;10.210;2023-02-15T08:58:39;64.90;;;13.55;;
68792;SDS011;55778;54.346;10.210;2023-02-15T09:01:09;143.93;;;17.80;;
68792;SDS011;55778;54.346;10.210;2023-02-15T09:03:42;103.47;;;14.88;;
68792;SDS011;55778;54.346;10.210;2023-02-15T09:06:09;61.58;;;14.27;;
68792;SDS011;55778;54.346;10.210;2023-02-15T09:08:34;89.70;;;17.33;;
68792;SDS011;55778;54.346;10.210;2023-02-15T09:11:10;45.92;;;12.85;;
68792;SDS011;55778;54.346;10.210;2023-02-15T09:13:47;55.22;;;14.52;;
68792;SDS011;55778;54.346;10.210;2023-02-15T09:16:14;76.55;;;14.55;;
68792;SDS011;55778;54.346;10.210;2023-02-15T09:18:43;45.42;;;12.25;;
68792;SDS011;55778;54.346;10.210;2023-02-15T09:21:10;54.60;;;12.40;;
68792;SDS011;55778;54.346;10.210;2023-02-15T09:23:38;85.63;;;14.88;;
68792;SDS011;55778;54.346;10.210;2023-02-15T09:26:12;124.55;;;18.20;;
68792;SDS011;55778;54.346;10.210;2023-02-15T09:28:39;80.20;;;13.75;;
68792;SDS011;55778;54.346;10.210;2023-02-15T09:31:06;115.25;;;14.65;;
68792;SDS011;55778;54.346;10.210;2023-02-15T09:33:40;86.32;;;15.20;;
68792;SDS011;55778;54.346;10.210;2023-02-15T09:36:14;126.40;;;17.67;;
68792;SDS011;55778;54.346;10.210;2023-02-15T09:38:40;55.95;;;14.93;;
68792;SDS011;55778;54.346;10.210;2023-02-15T09:46:46;90.22;;;13.25;;
68792;SDS011;55778;54.346;10.210;2023-02-15T09:54:47;63.33;;;14.52;;
68792;SDS011;55778;54.346;10.210;2023-02-15T09:57:20;123.03;;;16.98;;
68792;SDS011;55778;54.346;10.210;2023-02-15T10:00:22;83.80;;;15.43;;
68792;SDS011;55778;54.346;10.210;2023-02-15T10:05:45;104.43;;;15.52;;
68792;SDS011;55778;54.346;10.210;2023-02-15T10:08:34;189.70;;;20.08;;
68792;SDS011;55778;54.346;10.210;2023-02-15T10:16:55;42.20;;;13.32;;
68792;SDS011;55778;54.346;10.210;2023-02-15T10:27:26;51.30;;;16.02;;
68792;SDS011;55778;54.346;10.210;2023-02-15T10:30:10;113.43;;;16.30;;
68792;SDS011;55778;54.346;10.210;2023-02-15T10:32:45;73.40;;;16.15;;
68792;SDS011;55778;54.346;10.210;2023-02-15T10:37:59;96.00;;;18.05;;
68792;SDS011;55778;54.346;10.210;2023-02-15T10:40:55;50.40;;;15.07;;
68792;SDS011;55778;54.346;10.210;2023-02-15T10:43:44;83.35;;;17.02;;
68792;SDS011;55778;54.346;10.210;2023-02-15T10:46:30;65.78;;;16.75;;
68792;SDS011;55778;54.346;10.210;2023-02-15T10:49:05;64.88;;;16.70;;
68792;SDS011;55778;54.346;10.210;2023-02-15T10:52:02;46.67;;;15.85;;
68792;SDS011;55778;54.346;10.210;2023-02-15T10:57:38;51.03;;;15.77;;
68792;SDS011;55778;54.346;10.210;2023-02-15T11:00:15;64.70;;;16.80;;
68792;SDS011;55778;54.346;10.210;2023-02-15T11:05:39;40.08;;;15.77;;
68792;SDS011;55778;54.346;10.210;2023-02-15T11:10:58;58.85;;;17.08;;
68792;SDS011;55778;54.346;10.210;2023-02-15T11:13:29;46.28;;;16.55;;
68792;SDS011;55778;54.346;10.210;2023-02-15T11:16:01;58.35;;;17.33;;
68792;SDS011;55778;54.346;10.210;2023-02-15T11:20:57;69.32;;;16.85;;
68792;SDS011;55778;54.346;10.210;2023-02-15T11:23:27;85.78;;;18.88;;
68792;SDS011;55778;54.346;10.210;2023-02-15T11:25:56;58.72;;;16.17;;
68792;SDS011;55778;54.346;10.210;2023-02-15T11:29:10;62.67;;;15.88;;
68792;SDS011;55778;54.346;10.210;2023-02-15T11:31:25;62.67;;;17.92;;
68792;SDS011;55778;54.346;10.210;2023-02-15T11:33:56;51.13;;;15.95;;
68792;SDS011;55778;54.346;10.210;2023-02-15T11:36:34;74.30;;;18.42;;
68792;SDS011;55778;54.346;10.210;2023-02-15T11:39:21;74.60;;;17.60;;
68792;SDS011;55778;54.346;10.210;2023-02-15T11:41:54;53.40;;;18.08;;
68792;SDS011;55778;54.346;10.210;2023-02-15T11:44:32;79.20;;;18.75;;
68792;SDS011;55778;54.346;10.210;2023-02-15T11:47:02;74.95;;;17.92;;
68792;SDS011;55778;54.346;10.210;2023-02-15T11:49:34;79.43;;;18.92;;
68792;SDS011;55778;54.346;10.210;2023-02-15T11:52:10;46.88;;;16.65;;
68792;SDS011;55778;54.346;10.210;2023-02-15T11:54:51;65.20;;;18.35;;
68792;SDS011;55778;54.346;10.210;2023-02-15T11:57:21;49.42;;;18.50;;
68792;SDS011;55778;54.346;10.210;2023-02-15T12:02:44;52.05;;;18.77;;
68792;SDS011;55778;54.346;10.210;2023-02-15T12:05:13;54.67;;;19.65;;
68792;SDS011;55778;54.346;10.210;2023-02-15T12:07:46;68.97;;;19.63;;
68792;SDS011;55778;54.346;10.210;2023-02-15T12:12:43;77.75;;;20.13;;
68792;SDS011;55778;54.346;10.210;2023-02-15T12:15:10;63.80;;;19.60;;
68792;SDS011;55778;54.346;10.210;2023-02-15T12:17:40;46.03;;;18.77;;
68792;SDS011;55778;54.346;10.210;2023-02-15T12:22:39;51.97;;;20.15;;
68792;SDS011;55778;54.346;10.210;2023-02-15T12:25:33;56.85;;;19.70;;
68792;SDS011;55778;54.346;10.210;2023-02-15T12:28:02;48.47;;;18.63;;
68792;SDS011;55778;54.346;10.210;2023-02-15T12:30:34;63.33;;;20.13;;
68792;SDS011;55778;54.346;10.210;2023-02-15T12:33:05;51.92;;;19.42;;
68792;SDS011;55778;54.346;10.210;2023-02-15T12:35:33;52.55;;;23.80;;
68792;SDS011;55778;54.346;10.210;2023-02-15T12:40:28;51.03;;;19.70;;
68792;SDS011;55778;54.346;10.210;2023-02-15T12:42:54;62.15;;;21.42;;
68792;SDS011;55778;54.346;10.210;2023-02-15T12:50:37;51.20;;;20.25;;
68792;SDS011;55778;54.346;10.210;2023-02-15T12:53:18;60.90;;;20.27;;
68792;SDS011;55778;54.346;10.210;2023-02-15T12:55:55;50.15;;;19.77;;
68792;SDS011;55778;54.346;10.210;2023-02-15T12:58:23;53.17;;;19.45;;
68792;SDS011;55778;54.346;10.210;2023-02-15T13:03:35;51.17;;;19.83;;
68792;SDS011;55778;54.346;10.210;2023-02-15T13:06:02;49.33;;;18.05;;
68792;SDS011;55778;54.346;10.210;2023-02-15T13:08:54;54.42;;;20.73;;
68792;SDS011;55778;54.346;10.210;2023-02-15T13:11:30;53.65;;;21.67;;
68792;SDS011;55778;54.346;10.210;2023-02-15T13:14:01;58.40;;;20.95;;
68792;SDS011;55778;54.346;10.210;2023-02-15T13:16:34;58.30;;;21.10;;
68792;SDS011;55778;54.346;10.210;2023-02-15T13:21:59;63.63;;;22.95;;
68792;SDS011;55778;54.346;10.210;2023-02-15T13:24:29;53.72;;;20.52;;
68792;SDS011;55778;54.346;10.210;2023-02-15T13:27:00;56.60;;;22.73;;
68792;SDS011;55778;54.346;10.210;2023-02-15T13:29:30;57.45;;;22.63;;
68792;SDS011;55778;54.346;10.210;2023-02-15T13:32:00;55.47;;;21.55;;
68792;SDS011;55778;54.346;10.210;2023-02-15T13:34:36;56.85;;;21.63;;
68792;SDS011;55778;54.346;10.210;2023-02-15T13:40:10;53.13;;;21.85;;
68792;SDS011;55778;54.346;10.210;2023-02-15T13:42:41;62.75;;;21.83;;
68792;SDS011;55778;54.346;10.210;2023-02-15T13:45:26;56.08;;;21.52;;
68792;SDS011;55778;54.346;10.210;2023-02-15T13:47:58;54.28;;;21.30;;
68792;SDS011;55778;54.346;10.210;2023-02-15T13:50:41;57.47;;;21.98;;
68792;SDS011;55778;54.346;10.210;2023-02-15T13:55:51;61.67;;;20.65;;
68792;SDS011;55778;54.346;10.210;2023-02-15T14:12:27;58.42;;;23.13;;
68792;SDS011;55778;54.346;10.210;2023-02-15T14:18:14;62.38;;;23.55;;
68792;SDS011;55778;54.346;10.210;2023-02-15T14:20:44;60.17;;;23.73;;
68792;SDS011;55778;54.346;10.210;2023-02-15T14:25:50;61.30;;;24.65;;
68792;SDS011;55778;54.346;10.210;2023-02-15T14:31:18;68.72;;;24.80;;
68792;SDS011;55778;54.346;10.210;2023-02-15T14:33:55;65.50;;;25.05;;
68792;SDS011;55778;54.346;10.210;2023-02-15T14:36:22;68.93;;;25.23;;
68792;SDS011;55778;54.346;10.210;2023-02-15T14:45:19;68.47;;;25.33;;
68792;SDS011;55778;54.346;10.210;2023-02-15T14:47:43;62.72;;;21.92;;
68792;SDS011;55778;54.346;10.210;2023-02-15T14:56:12;69.35;;;24.40;;
68792;SDS011;55778;54.346;10.210;2023-02-15T15:01:14;66.15;;;26.00;;
68792;SDS011;55778;54.346;10.210;2023-02-15T15:03:47;64.18;;;26.20;;
68792;SDS011;55778;54.346;10.210;2023-02-15T15:06:57;76.40;;;23.85;;
68792;SDS011;55778;54.346;10.210;2023-02-15T15:09:24;78.55;;;25.40;;
68792;SDS011;55778;54.346;10.210;2023-02-15T15:11:53;74.97;;;25.27;;
68792;SDS011;55778;54.346;10.210;2023-02-15T15:16:57;78.65;;;25.83;;
68792;SDS011;55778;54.346;10.210;2023-02-15T15:22:17;74.25;;;27.45;;
68792;SDS011;55778;54.346;10.210;2023-02-15T15:24:51;81.75;;;26.20;;
68792;SDS011;55778;54.346;10.210;2023-02-15T15:30:48;83.03;;;27.90;;
68792;SDS011;55778;54.346;10.210;2023-02-15T15:32:51;84.82;;;27.35;;
68792;SDS011;55778;54.346;10.210;2023-02-15T15:43:24;81.90;;;27.42;;
68792;SDS011;55778;54.346;10.210;2023-02-15T15:46:06;91.25;;;29.00;;
68792;SDS011;55778;54.346;10.210;2023-02-15T15:51:14;91.28;;;26.50;;
68792;SDS011;55778;54.346;10.210;2023-02-15T15:53:45;95.32;;;29.17;;
68792;SDS011;55778;54.346;10.210;2023-02-15T15:56:17;92.38;;;28.50;;
68792;SDS011;55778;54.346;10.210;2023-02-15T15:58:51;105.80;;;32.85;;
68792;SDS011;55778;54.346;10.210;2023-02-15T16:01:26;106.53;;;31.20;;
68792;SDS011;55778;54.346;10.210;2023-02-15T16:03:59;109.03;;;33.42;;
68792;SDS011;55778;54.346;10.210;2023-02-15T16:06:32;96.03;;;31.33;;
68792;SDS011;55778;54.346;10.210;2023-02-15T16:09:13;118.95;;;29.98;;
68792;SDS011;55778;54.346;10.210;2023-02-15T16:11:45;102.07;;;30.27;;
68792;SDS011;55778;54.346;10.210;2023-02-15T16:14:14;159.07;;;33.08;;
68792;SDS011;55778;54.346;10.210;2023-02-15T16:16:46;116.38;;;33.22;;
68792;SDS011;55778;54.346;10.210;2023-02-15T16:19:17;137.88;;;33.60;;
68792;SDS011;55778;54.346;10.210;2023-02-15T16:21:48;118.38;;;33.10;;
68792;SDS011;55778;54.346;10.210;2023-02-15T16:24:24;127.13;;;33.42;;
68792;SDS011;55778;54.346;10.210;2023-02-15T16:29:37;113.68;;;34.38;;
68792;SDS011;55778;54.346;10.210;2023-02-15T16:37:22;124.30;;;37.30;;
68792;SDS011;55778;54.346;10.210;2023-02-15T16:39:52;111.97;;;29.85;;
68792;SDS011;55778;54.346;10.210;2023-02-15T16:42:19;120.05;;;34.50;;
68792;SDS011;55778;54.346;10.210;2023-02-15T16:44:45;112.85;;;31.77;;
68792;SDS011;55778;54.346;10.210;2023-02-15T16:47:27;90.90;;;28.02;;
68792;SDS011;55778;54.346;10.210;2023-02-15T16:49:56;132.85;;;34.40;;
68792;SDS011;55778;54.346;10.210;2023-02-15T16:52:25;111.65;;;30.80;;
68792;SDS011;55778;54.346;10.210;2023-02-15T16:54:59;114.35;;;35.10;;
68792;SDS011;55778;54.346;10.210;2023-02-15T16:57:28;128.95;;;36.97;;
68792;SDS011;55778;54.346;10.210;2023-02-15T17:00:00;144.65;;;34.13;;
68792;SDS011;55778;54.346;10.210;2023-02-15T17:03:18;148.15;;;35.25;;
68792;SDS011;55778;54.346;10.210;2023-02-15T17:08:18;160.30;;;37.10;;
68792;SDS011;55778;54.346;10.210;2023-02-15T17:13:32;166.77;;;36.50;;
68792;SDS011;55778;54.346;10.210;2023-02-15T17:18:32;140.27;;;37.92;;
68792;SDS011;55778;54.346;10.210;2023-02-15T17:21:10;146.90;;;37.30;;
68792;SDS011;55778;54.346;10.210;2023-02-15T17:23:42;154.27;;;37.50;;
68792;SDS011;55778;54.346;10.210;2023-02-15T17:26:21;143.05;;;30.05;;